MSC Immacolata — 3FLQ2 — position and weather

sailwx.info

Track history (hours):
 
Tides and Currents Weather Stations Pressure Air Temp Water Temp Dewpoint Dewpoint Depression Visibility Wind Speed Wind Dir Waves Ship Positions

MSC Immacolata

Last reported at 2018-Apr-24 12:30 UTC. Time now 2018-Apr-24 12:41 UTC.
Position N 28°32' W 014°46'.

Length 199 m; draft 8.3 m.

Type: Cargo ship. MMSI: 373124000.

Date/timePositionNaut miles runAvg speedWind from/ knotsBaromVisibWave heightAir tempDewpointWater temp
2018-Apr-24 12:30N 28°32' W 014°46'712.4
2018-Apr-24 11:58N 28°25' W 014°48'612.6
2018-Apr-24 11:30N 28°20' W 014°50'612.5
2018-Apr-24 11:00N 28°14' W 014°52'712.6
2018-Apr-24 10:27N 28°07' W 014°55'512.2
2018-Apr-24 10:00N 28°02' W 014°57'612.2
2018-Apr-24 09:30N 27°56' W 014°59'612.1
2018-Apr-24 09:00N 27°51' W 015°01'611.1
2018-Apr-24 08:30N 27°45' W 015°03'814.8
2018-Apr-24 07:58N 27°38' W 015°06'  
2018-Apr-17 07:23N 11°36' W 017°19'7115.1
2018-Apr-17 02:41N 10°37' W 016°39'515.6
2018-Apr-17 02:23N 10°34' W 016°36'615.6
2018-Apr-17 02:00N 10°29' W 016°32'915.6
2018-Apr-17 01:24N 10°22' W 016°25'615.4
2018-Apr-17 01:00N 10°18' W 016°21'815.2
2018-Apr-17 00:30N 10°12' W 016°16'815.3
2018-Apr-17 00:00N 10°07' W 016°11'815.3
2018-Apr-16 23:30N 10°01' W 016°05'815.0
2018-Apr-16 22:57N 09°55' W 015°59'715.2
2018-Apr-16 22:30N 09°53' W 015°53'714.9
2018-Apr-16 22:00N 09°50' W 015°46'815.1
2018-Apr-16 21:30N 09°45' W 015°40'815.1
2018-Apr-16 21:00N 09°41' W 015°34'714.7
2018-Apr-16 20:30N 09°36' W 015°28'714.6
2018-Apr-16 20:00N 09°31' W 015°23'814.9
2018-Apr-16 19:30N 09°26' W 015°17'715.1
2018-Apr-16 19:00N 09°21' W 015°11'815.7
2018-Apr-16 18:30N 09°16' W 015°05'815.5
2018-Apr-16 18:00N 09°10' W 014°60'815.4
2018-Apr-16 17:30N 09°05' W 014°54'815.6
2018-Apr-16 17:00N 09°00' W 014°48'510.7
2018-Apr-16 16:30N 08°56' W 014°44'0 1.0
2018-Apr-16 16:00N 08°56' W 014°45'1 1.0
2018-Apr-16 15:30N 08°56' W 014°45'1 1.0
2018-Apr-16 15:00N 08°57' W 014°45'0 0.9
2018-Apr-16 14:30N 08°57' W 014°46'0 0.6
2018-Apr-16 14:00N 08°57' W 014°46'0 0.6
2018-Apr-16 13:26N 08°57' W 014°46'1 2.0
2018-Apr-16 13:00N 08°57' W 014°46'714.6
2018-Apr-16 12:31N 08°49' W 014°46'816.6
2018-Apr-16 12:01N 08°41' W 014°47'2315.7
2018-Apr-16 10:31N 08°23' W 014°32'015.8
2018-Apr-16 10:29N 08°23' W 014°32'  
Track history (hours):
 
Tides and Currents Weather Stations Pressure Air Temp Water Temp Dewpoint Dewpoint Depression Visibility Wind Speed Wind Dir Waves Ship Positions

MSC Immacolata

Last reported at 2018-Apr-24 12:30 UTC. Time now 2018-Apr-24 12:41 UTC.
Position N 28°32' W 014°46'.

Length 199 m; draft 8.3 m.

Type: Cargo ship. MMSI: 373124000.

Date/timePositionNaut miles runAvg speedWind from/ knotsBaromVisibWave heightAir tempDewpointWater temp
2018-Apr-24 12:30N 28°32' W 014°46'712.4
2018-Apr-24 11:58N 28°25' W 014°48'612.6
2018-Apr-24 11:30N 28°20' W 014°50'612.5
2018-Apr-24 11:00N 28°14' W 014°52'712.6
2018-Apr-24 10:27N 28°07' W 014°55'512.2
2018-Apr-24 10:00N 28°02' W 014°57'612.2
2018-Apr-24 09:30N 27°56' W 014°59'612.1
2018-Apr-24 09:00N 27°51' W 015°01'611.1
2018-Apr-24 08:30N 27°45' W 015°03'814.8
2018-Apr-24 07:58N 27°38' W 015°06'  
2018-Apr-17 07:23N 11°36' W 017°19'7115.1
2018-Apr-17 02:41N 10°37' W 016°39'515.6
2018-Apr-17 02:23N 10°34' W 016°36'615.6
2018-Apr-17 02:00N 10°29' W 016°32'915.6
2018-Apr-17 01:24N 10°22' W 016°25'615.4
2018-Apr-17 01:00N 10°18' W 016°21'815.2
2018-Apr-17 00:30N 10°12' W 016°16'815.3
2018-Apr-17 00:00N 10°07' W 016°11'815.3
2018-Apr-16 23:30N 10°01' W 016°05'815.0
2018-Apr-16 22:57N 09°55' W 015°59'715.2
2018-Apr-16 22:30N 09°53' W 015°53'714.9
2018-Apr-16 22:00N 09°50' W 015°46'815.1
2018-Apr-16 21:30N 09°45' W 015°40'815.1
2018-Apr-16 21:00N 09°41' W 015°34'714.7
2018-Apr-16 20:30N 09°36' W 015°28'714.6
2018-Apr-16 20:00N 09°31' W 015°23'814.9
2018-Apr-16 19:30N 09°26' W 015°17'715.1
2018-Apr-16 19:00N 09°21' W 015°11'815.7
2018-Apr-16 18:30N 09°16' W 015°05'815.5
2018-Apr-16 18:00N 09°10' W 014°60'815.4
2018-Apr-16 17:30N 09°05' W 014°54'815.6
2018-Apr-16 17:00N 09°00' W 014°48'510.7
2018-Apr-16 16:30N 08°56' W 014°44'0 1.0
2018-Apr-16 16:00N 08°56' W 014°45'1 1.0
2018-Apr-16 15:30N 08°56' W 014°45'1 1.0
2018-Apr-16 15:00N 08°57' W 014°45'0 0.9
2018-Apr-16 14:30N 08°57' W 014°46'0 0.6
2018-Apr-16 14:00N 08°57' W 014°46'0 0.6
2018-Apr-16 13:26N 08°57' W 014°46'1 2.0
2018-Apr-16 13:00N 08°57' W 014°46'714.6
2018-Apr-16 12:31N 08°49' W 014°46'816.6
2018-Apr-16 12:01N 08°41' W 014°47'2315.7
2018-Apr-16 10:31N 08°23' W 014°32'015.8
2018-Apr-16 10:29N 08°23' W 014°32'  

Dump ship's entire track history